Time;durP1;ratioP1;P1;durP2;ratioP2;P2;SDS_P1;SDS_P2;PMS_P1;PMS_P2;Temp;Humidity;BMP_temperature;BMP_pressure;BME280_temperature;BME280_humidity;BME280_pressure;Samples;Min_cycle;Max_cycle;Signal;HPM_P1;HPM_P2
2022/11/04 00:01:48;;;;;;;21.42;12.02;;;;;;;12.48;63.54;100389.06;5069471;28;20476;-26
2022/11/04 00:04:16;;;;;;;21.08;10.88;;;;;;;12.55;63.11;100386.34;5069377;28;20512;-28
2022/11/04 00:06:41;;;;;;;18.20;11.85;;;;;;;12.54;63.01;100368.63;5069626;28;20050;-26
2022/11/04 00:09:11;;;;;;;18.65;11.88;;;;;;;12.56;62.84;100371.91;5069243;28;20025;-26
2022/11/04 00:14:20;;;;;;;24.17;11.60;;;;;;;11.79;66.49;100380.25;5069331;28;20170;-27
2022/11/04 00:28:41;;;;;;;20.40;11.73;;;;;;;12.29;64.37;100371.41;5069238;28;20507;-28
2022/11/04 00:30:31;;;;;;;21.33;12.07;;;;;;;11.88;65.00;100365.59;5068642;28;20032;-27
2022/11/04 00:35:47;;;;;;;18.40;11.63;;;;;;;11.20;68.03;100369.84;5068872;28;20039;-25
2022/11/04 00:38:12;;;;;;;23.85;12.20;;;;;;;11.35;67.65;100372.19;5068597;28;20020;-29
2022/11/04 00:40:38;;;;;;;19.20;11.07;;;;;;;11.23;68.18;100364.06;5068836;28;20032;-26
2022/11/04 00:43:03;;;;;;;20.65;11.73;;;;;;;10.90;70.03;100368.78;5069199;28;20024;-28
2022/11/04 00:45:29;;;;;;;18.92;11.07;;;;;;;10.52;70.88;100354.41;5067402;28;20420;-26
2022/11/04 00:47:54;;;;;;;20.13;12.27;;;;;;;10.71;69.78;100371.34;5068925;28;20107;-26
2022/11/04 00:50:19;;;;;;;18.25;10.57;;;;;;;10.50;69.67;100364.47;5068593;28;20090;-26
2022/11/04 00:52:45;;;;;;;21.70;11.43;;;;;;;10.98;67.91;100352.53;5068616;28;20503;-26
2022/11/04 00:55:10;;;;;;;21.48;12.13;;;;;;;10.64;69.04;100350.03;5068694;28;20115;-26
2022/11/04 00:57:36;;;;;;;23.30;12.93;;;;;;;10.90;68.42;100369.59;5068323;28;20120;-27
2022/11/04 01:00:01;;;;;;;24.00;12.88;;;;;;;11.11;68.82;100356.97;5068826;28;20028;-26
2022/11/04 01:02:27;;;;;;;24.08;13.35;;;;;;;11.29;68.00;100361.56;5066313;28;20039;-27
2022/11/04 01:04:52;;;;;;;21.13;12.00;;;;;;;10.70;68.84;100356.34;5068303;28;20032;-26
2022/11/04 01:07:17;;;;;;;20.75;11.88;;;;;;;10.28;70.49;100329.22;5067813;28;20087;-26
2022/11/04 01:09:43;;;;;;;21.60;12.05;;;;;;;10.29;70.45;100341.50;5068398;28;20043;-25
2022/11/04 01:12:08;;;;;;;20.55;11.48;;;;;;;10.44;70.38;100350.13;5068186;28;20377;-27
2022/11/04 01:14:34;;;;;;;20.42;12.90;;;;;;;10.62;69.61;100356.59;5066456;28;20028;-26
2022/11/04 01:16:59;;;;;;;23.10;12.57;;;;;;;10.88;68.51;100360.19;5067951;28;20036;-25
2022/11/04 01:19:24;;;;;;;24.58;13.05;;;;;;;10.85;68.68;100354.25;5067835;28;20020;-27
2022/11/04 01:21:51;;;;;;;25.45;12.82;;;;;;;10.86;69.64;100360.38;5067703;28;20028;-28
2022/11/04 01:24:17;;;;;;;40.95;19.83;;;;;;;10.84;69.42;100355.25;5066238;28;20086;-26
2022/11/04 01:26:42;;;;;;;44.05;22.10;;;;;;;10.79;69.28;100368.44;5066485;28;20052;-27
2022/11/04 01:29:08;;;;;;;31.15;16.42;;;;;;;10.55;69.97;100350.47;5067554;28;20021;-27
2022/11/04 01:31:33;;;;;;;22.98;12.20;;;;;;;10.35;70.60;100348.69;5067889;28;20025;-30
2022/11/04 01:33:59;;;;;;;22.08;11.07;;;;;;;10.04;71.48;100344.84;5068006;28;20507;-25
2022/11/04 01:36:25;;;;;;;21.67;11.38;;;;;;;9.97;72.59;100348.56;5066858;28;20032;-27
2022/11/04 01:38:51;;;;;;;20.38;11.93;;;;;;;10.13;72.35;100355.28;5068061;28;20107;-29
2022/11/04 01:41:16;;;;;;;20.60;11.27;;;;;;;9.64;73.07;100344.94;5083107;28;20120;-27
2022/11/04 01:43:56;;;;;;;18.35;11.55;;;;;;;9.89;72.86;100341.63;5067563;28;20032;-27
2022/11/04 01:46:37;;;;;;;17.05;10.77;;;;;;;9.91;72.87;100339.56;5067162;28;20429;-26
2022/11/04 01:49:26;;;;;;;20.58;11.93;;;;;;;9.77;72.47;100322.78;5067311;28;20040;-26
2022/11/04 01:51:59;;;;;;;20.98;12.10;;;;;;;10.06;71.33;100337.47;5067476;28;20106;-32
2022/11/04 01:54:25;;;;;;;28.40;14.15;;;;;;;10.17;70.21;100324.53;5067189;28;20020;-27
2022/11/04 01:56:52;;;;;;;41.05;17.27;;;;;;;10.41;69.69;100345.19;5067008;28;20105;-27
2022/11/04 01:59:31;;;;;;;38.30;16.40;;;;;;;10.24;70.62;100349.34;5066819;28;20074;-25
2022/11/04 02:01:57;;;;;;;28.05;13.48;;;;;;;10.19;71.04;100346.47;5067350;28;20040;-26
2022/11/04 02:04:26;;;;;;;30.40;14.48;;;;;;;9.75;72.21;100338.16;5067068;28;20085;-26
2022/11/04 02:06:58;;;;;;;30.52;14.85;;;;;;;9.82;70.79;100330.16;5065491;28;20055;-29
2022/11/04 02:09:26;;;;;;;26.92;13.00;;;;;;;9.59;70.47;100335.91;5067198;28;20025;-27
2022/11/04 02:14:36;;;;;;;27.65;14.73;;;;;;;9.64;69.94;100355.59;5066910;28;19919;-25
2022/11/04 02:17:16;;;;;;;27.98;15.80;;;;;;;9.43;70.07;100347.78;5067188;28;20036;-26
2022/11/04 02:20:03;;;;;;;28.60;15.00;;;;;;;9.15;72.02;100345.28;5065641;28;20402;-25
2022/11/04 02:23:02;;;;;;;22.35;13.00;;;;;;;8.98;72.90;100318.25;5066811;28;20032;-26
2022/11/04 02:25:47;;;;;;;27.65;14.40;;;;;;;9.03;72.80;100342.41;5067144;28;20036;-27
2022/11/04 02:28:15;;;;;;;29.13;15.80;;;;;;;9.33;70.98;100334.88;5067151;28;20767;-26
2022/11/04 02:30:54;;;;;;;39.33;16.83;;;;;;;9.31;70.12;100312.97;5066852;28;20033;-26
2022/11/04 02:33:34;;;;;;;34.75;16.60;;;;;;;9.17;71.37;100335.28;5066966;28;20111;-27
2022/11/04 02:35:59;;;;;;;36.58;17.70;;;;;;;9.39;71.33;100330.59;5065429;28;20036;-29
2022/11/04 02:38:43;;;;;;;36.53;17.92;;;;;;;9.19;72.52;100327.91;5066856;28;20093;-28
2022/11/04 02:41:24;;;;;;;32.42;15.70;;;;;;;9.02;73.17;100319.50;5065317;28;20032;-25
2022/11/04 02:44:20;;;;;;;31.05;15.90;;;;;;;9.37;72.13;100314.00;5067028;28;20025;-26
2022/11/04 02:47:11;;;;;;;31.92;16.70;;;;;;;9.53;72.46;100332.22;5066932;28;20032;-25
2022/11/04 02:49:47;;;;;;;32.67;18.27;;;;;;;9.40;72.46;100303.78;5070856;28;20024;-26
2022/11/04 02:52:24;;;;;;;30.30;16.75;;;;;;;9.25;73.77;100324.44;5069567;28;20040;-26
2022/11/04 02:54:59;;;;;;;38.53;17.70;;;;;;;9.27;74.08;100309.06;5070769;28;20427;-28
2022/11/04 02:57:29;;;;;;;34.60;16.50;;;;;;;9.03;74.39;100323.78;5069373;28;20404;-26
2022/11/04 03:00:07;;;;;;;40.53;18.95;;;;;;;9.28;73.25;100309.91;5085714;28;20040;-26
2022/11/04 03:02:46;;;;;;;34.85;18.58;;;;;;;9.50;72.54;100314.00;5070673;28;20119;-26
2022/11/04 03:05:16;;;;;;;29.83;16.85;;;;;;;9.50;72.72;100316.66;5068930;28;20744;-30
2022/11/04 03:07:44;;;;;;;33.20;16.25;;;;;;;9.76;71.57;100318.47;5070430;28;20025;-25
2022/11/04 03:10:22;;;;;;;33.95;15.93;;;;;;;9.72;71.03;100295.13;5070218;28;20024;-27
2022/11/04 03:12:55;;;;;;;34.13;14.95;;;;;;;9.15;73.48;100287.56;5070754;28;20845;-25
2022/11/04 03:15:26;;;;;;;28.10;14.23;;;;;;;8.78;75.26;100291.63;5070465;28;20036;-27
2022/11/04 03:18:07;;;;;;;28.63;13.95;;;;;;;9.22;74.23;100304.38;5070511;28;20158;-25
2022/11/04 03:20:36;;;;;;;24.95;13.55;;;;;;;9.10;74.21;100300.69;5068446;28;20032;-29
2022/11/04 03:23:02;;;;;;;31.35;16.05;;;;;;;8.75;74.75;100308.81;5070316;28;20025;-28
2022/11/04 03:25:35;;;;;;;28.42;15.05;;;;;;;9.05;72.12;100306.63;5070211;28;20511;-26
2022/11/04 03:28:26;;;;;;;26.65;14.93;;;;;;;8.71;72.27;100320.06;5069977;28;20028;-26
2022/11/04 03:30:57;;;;;;;29.80;14.93;;;;;;;8.62;72.56;100309.59;5069751;28;20563;-29
2022/11/04 03:33:46;;;;;;;30.20;13.73;;;;;;;8.66;71.88;100304.69;5069794;28;20051;-28
2022/11/04 03:36:12;;;;;;;20.45;11.60;;;;;;;8.91;70.67;100299.63;5069784;28;20032;-26
2022/11/04 03:38:37;;;;;;;24.45;12.80;;;;;;;8.97;70.12;100290.00;5085046;28;20027;-26
2022/11/04 03:41:09;;;;;;;22.00;11.93;;;;;;;8.82;71.46;100306.97;5068393;28;20062;-26
2022/11/04 03:43:37;;;;;;;20.55;12.55;;;;;;;8.57;72.06;100281.97;5069688;28;20025;-28
2022/11/04 03:46:02;;;;;;;25.93;12.87;;;;;;;8.53;72.32;100288.69;5069688;28;20090;-26
2022/11/04 03:48:28;;;;;;;23.52;13.02;;;;;;;8.53;73.10;100309.97;5069701;28;20255;-28
2022/11/04 03:50:54;;;;;;;24.35;13.18;;;;;;;8.68;73.10;100310.63;5069986;28;20020;-28
2022/11/04 03:53:22;;;;;;;24.05;13.20;;;;;;;8.54;74.65;100314.25;5069729;28;20546;-25
2022/11/04 03:55:47;;;;;;;23.92;13.13;;;;;;;8.67;75.28;100322.28;5069363;28;20790;-26
2022/11/04 03:58:31;;;;;;;23.33;14.70;;;;;;;8.67;76.02;100316.97;5069238;28;20031;-28
2022/11/04 04:01:12;;;;;;;23.52;12.82;;;;;;;8.62;76.01;100309.59;5069571;28;20280;-33
2022/11/04 04:03:45;;;;;;;28.42;14.00;;;;;;;8.63;74.56;100294.47;5069502;28;20033;-26
2022/11/04 04:06:19;;;;;;;45.90;21.77;;;;;;;8.76;74.21;100314.94;5067535;28;20068;-26
2022/11/04 04:08:48;;;;;;;89.57;35.83;;;;;;;8.75;73.63;100298.16;5069470;28;20078;-26
2022/11/04 04:11:42;;;;;;;335.70;118.07;;;;;;;8.76;74.57;100312.28;5069119;28;20049;-26
2022/11/04 04:14:39;;;;;;;302.35;117.20;;;;;;;8.84;74.79;100312.91;5069168;28;20471;-26
2022/11/04 04:17:17;;;;;;;120.20;52.05;;;;;;;8.35;75.82;100318.44;5067690;28;20032;-27
2022/11/04 04:19:49;;;;;;;245.80;97.20;;;;;;;8.39;76.50;100315.19;5069395;28;20046;-25
2022/11/04 04:22:20;;;;;;;198.45;80.53;;;;;;;8.75;74.87;100298.16;5069338;28;20032;-32
2022/11/04 04:27:34;;;;;;;100.93;45.40;;;;;;;8.50;75.66;100297.06;5069089;28;20560;-25
2022/11/04 04:30:12;;;;;;;57.45;28.98;;;;;;;8.62;75.93;100309.59;5069065;28;20658;-27
2022/11/04 04:32:44;;;;;;;78.30;34.15;;;;;;;8.56;75.96;100305.06;5068723;28;20028;-29
2022/11/04 04:46:31;;;;;;;51.42;27.02;;;;;;;8.63;75.64;100299.78;5068705;28;20040;-26
2022/11/04 04:49:08;;;;;;;46.83;25.95;;;;;;;8.49;76.84;100298.09;5068761;28;20035;-25
2022/11/04 04:51:37;;;;;;;32.72;17.05;;;;;;;8.72;76.00;100317.16;5068948;28;20059;-30
2022/11/04 04:54:03;;;;;;;25.40;13.60;;;;;;;8.26;78.28;100315.16;5066970;28;20036;-26
2022/11/04 04:56:28;;;;;;;29.55;15.48;;;;;;;8.50;77.14;100311.19;5067879;28;20032;-27
2022/11/04 04:58:53;;;;;;;43.45;20.05;;;;;;;8.41;76.68;100297.25;5068581;28;20061;-26
2022/11/04 05:01:19;;;;;;;34.40;17.67;;;;;;;8.74;76.28;100323.09;5066606;28;20043;-27
2022/11/04 05:03:44;;;;;;;29.70;16.15;;;;;;;8.59;76.59;100303.84;5068297;28;20040;-27
2022/11/04 05:06:10;;;;;;;34.70;16.45;;;;;;;8.42;77.73;100322.81;5068264;28;20415;-29
2022/11/04 05:08:35;;;;;;;26.10;16.25;;;;;;;8.34;77.46;100307.00;5068405;28;20036;-27
2022/11/04 05:11:01;;;;;;;27.42;14.93;;;;;;;8.33;76.61;100308.00;5067331;28;20032;-26
2022/11/04 05:13:28;;;;;;;28.60;15.13;;;;;;;8.26;76.83;100315.16;5068352;28;20029;-27
2022/11/04 05:15:54;;;;;;;23.55;14.10;;;;;;;8.31;76.35;100326.00;5068178;28;20496;-29
2022/11/04 05:18:19;;;;;;;21.75;12.52;;;;;;;8.20;76.43;100327.38;5067843;28;20052;-26
2022/11/04 05:20:44;;;;;;;21.00;11.88;;;;;;;7.95;77.78;100318.25;5067860;28;20104;-27
2022/11/04 05:23:11;;;;;;;27.30;13.00;;;;;;;8.39;77.02;100330.31;5066313;28;20089;-26
2022/11/04 05:25:42;;;;;;;20.85;12.50;;;;;;;8.45;76.89;100335.69;5067669;28;20064;-27
2022/11/04 05:28:07;;;;;;;22.33;12.23;;;;;;;8.52;77.01;100329.56;5067798;28;20035;-31
2022/11/04 05:30:33;;;;;;;20.35;12.10;;;;;;;8.53;77.05;100341.88;5067531;28;20028;-25
2022/11/04 05:32:59;;;;;;;22.65;12.77;;;;;;;8.87;75.94;100326.81;5067661;28;20032;-28
2022/11/04 05:35:24;;;;;;;26.02;13.45;;;;;;;9.10;75.50;100337.13;5067654;28;20030;-26
2022/11/04 05:37:50;;;;;;;26.65;15.45;;;;;;;9.46;74.97;100347.38;5067494;28;20491;-27
2022/11/04 05:40:15;;;;;;;32.55;18.05;;;;;;;9.20;76.29;100343.66;5067395;28;20511;-29
2022/11/04 05:42:41;;;;;;;32.35;18.30;;;;;;;9.55;75.26;100348.00;5067732;28;20104;-26
2022/11/04 05:45:07;;;;;;;31.27;19.25;;;;;;;9.57;76.23;100352.09;5066008;28;20024;-27
2022/11/04 05:47:32;;;;;;;32.55;16.58;;;;;;;9.56;76.02;100344.28;5067516;28;20032;-26
2022/11/04 05:49:58;;;;;;;27.58;15.20;;;;;;;9.73;75.08;100352.72;5065932;28;20062;-28
2022/11/04 05:52:23;;;;;;;26.48;14.93;;;;;;;9.74;75.15;100341.00;5067189;28;20036;-26
2022/11/04 05:54:48;;;;;;;24.08;14.55;;;;;;;10.04;73.75;100334.19;5065585;28;20626;-26
2022/11/04 05:57:14;;;;;;;24.92;14.70;;;;;;;10.09;74.58;100352.22;5067210;28;20472;-26
2022/11/04 05:59:39;;;;;;;28.60;15.25;;;;;;;10.09;73.68;100343.41;5067192;28;20411;-27
2022/11/04 06:02:06;;;;;;;25.02;14.75;;;;;;;10.04;74.35;100357.38;5082593;28;20020;-26
2022/11/04 06:04:32;;;;;;;28.80;15.02;;;;;;;9.99;74.96;100367.81;5067067;28;20040;-26
2022/11/04 06:06:57;;;;;;;28.55;16.33;;;;;;;10.15;73.64;100358.56;5066903;28;20056;-26
2022/11/04 06:09:37;;;;;;;23.45;15.82;;;;;;;9.78;75.25;100329.72;5067079;28;20636;-28
2022/11/04 06:12:08;;;;;;;26.60;17.08;;;;;;;10.10;75.06;100377.03;5067009;28;20032;-26
2022/11/04 06:14:34;;;;;;;24.20;15.02;;;;;;;10.08;75.30;100365.78;5065655;28;20027;-27
2022/11/04 06:17:00;;;;;;;28.88;16.08;;;;;;;10.30;73.57;100380.50;5066775;28;20032;-28
2022/11/04 06:19:26;;;;;;;26.77;15.30;;;;;;;10.16;74.06;100386.88;5067029;28;20547;-28
2022/11/04 06:21:51;;;;;;;26.38;13.75;;;;;;;9.99;74.57;100379.31;5064053;28;20025;-27
2022/11/04 06:24:16;;;;;;;27.85;14.85;;;;;;;9.86;75.42;100371.31;5066795;28;20082;-28
2022/11/04 06:26:42;;;;;;;24.98;14.55;;;;;;;9.95;75.68;100369.25;5066960;28;20039;-26
2022/11/04 06:29:08;;;;;;;22.65;13.50;;;;;;;10.23;74.94;100374.34;5066975;28;20035;-26
2022/11/04 06:31:34;;;;;;;25.05;13.90;;;;;;;10.38;74.33;100382.09;5066869;28;20412;-29
2022/11/04 06:34:00;;;;;;;26.92;14.38;;;;;;;10.66;73.45;100384.47;5066827;28;20033;-26
2022/11/04 06:36:25;;;;;;;28.63;14.30;;;;;;;10.77;72.22;100391.84;5066608;28;20390;-26
2022/11/04 06:38:51;;;;;;;24.77;14.13;;;;;;;10.84;72.49;100392.59;5067135;28;20554;-26
2022/11/04 06:41:17;;;;;;;23.27;13.93;;;;;;;10.91;72.52;100391.75;5067038;28;20021;-27
2022/11/04 06:43:43;;;;;;;24.25;13.13;;;;;;;11.10;71.61;100396.19;5066988;28;20119;-30
2022/11/04 06:46:23;;;;;;;31.83;14.82;;;;;;;10.99;72.41;100404.84;5066669;28;20128;-26
2022/11/04 06:48:48;;;;;;;30.10;14.18;;;;;;;11.06;71.43;100381.63;5066696;28;20029;-27
2022/11/04 06:51:14;;;;;;;34.33;13.68;;;;;;;10.97;72.44;100393.56;5065131;28;20047;-28
2022/11/04 06:53:39;;;;;;;24.02;13.80;;;;;;;10.85;72.56;100372.91;5067172;28;20108;-28
2022/11/04 06:56:05;;;;;;;29.70;14.68;;;;;;;10.99;71.95;100395.03;5066513;28;20021;-26
2022/11/04 06:58:31;;;;;;;26.20;14.13;;;;;;;11.18;71.21;100379.91;5066539;28;20111;-28
2022/11/04 07:00:56;;;;;;;28.27;14.68;;;;;;;11.26;71.09;100401.00;5065309;28;20166;-26
2022/11/04 07:03:22;;;;;;;22.17;13.82;;;;;;;11.19;70.96;100397.56;5066531;28;20464;-28
2022/11/04 07:05:47;;;;;;;28.77;14.23;;;;;;;10.90;72.64;100401.63;5066216;28;20152;-26
2022/11/04 07:08:13;;;;;;;27.13;14.10;;;;;;;11.08;70.97;100378.75;5066543;28;20039;-29
2022/11/04 07:10:38;;;;;;;26.77;16.15;;;;;;;11.15;71.82;100383.00;5066481;28;20094;-30
2022/11/04 07:13:04;;;;;;;27.35;14.02;;;;;;;11.54;70.14;100397.09;5066583;28;20024;-26
2022/11/04 07:15:31;;;;;;;25.90;14.50;;;;;;;11.43;70.64;100395.97;5066830;28;20028;-26
2022/11/04 07:17:58;;;;;;;26.88;15.23;;;;;;;11.44;71.56;100392.28;5064709;28;20028;-27
2022/11/04 07:20:23;;;;;;;25.83;15.02;;;;;;;11.48;70.48;100381.16;5066615;28;20048;-28
2022/11/04 07:22:48;;;;;;;25.35;15.77;;;;;;;11.48;70.78;100381.94;5066231;28;20032;-26
2022/11/04 07:25:14;;;;;;;23.58;14.25;;;;;;;11.33;72.06;100390.28;5066513;28;20032;-27
2022/11/04 07:27:40;;;;;;;34.53;15.65;;;;;;;11.62;71.79;100394.16;5066302;28;20028;-28
2022/11/04 07:30:06;;;;;;;24.70;14.48;;;;;;;11.58;71.64;100386.81;5066439;28;20499;-27
2022/11/04 07:32:32;;;;;;;26.58;14.57;;;;;;;11.42;72.66;100383.66;5066023;28;20115;-25
2022/11/04 07:34:57;;;;;;;22.38;14.38;;;;;;;11.37;72.06;100369.31;5069796;28;20024;-25
2022/11/04 07:37:22;;;;;;;26.83;13.70;;;;;;;11.77;71.68;100380.50;5069904;28;20634;-29
2022/11/04 07:39:48;;;;;;;24.88;15.35;;;;;;;11.94;71.00;100372.78;5069929;28;20032;-25
2022/11/04 07:42:13;;;;;;;26.00;14.35;;;;;;;12.15;70.33;100371.53;5069794;28;20123;-27
2022/11/04 07:44:39;;;;;;;25.30;13.25;;;;;;;12.11;69.86;100369.53;5069350;28;20496;-27
2022/11/04 07:47:04;;;;;;;22.80;14.57;;;;;;;11.95;70.70;100355.72;5069729;28;20032;-28
2022/11/04 07:49:29;;;;;;;27.58;15.27;;;;;;;12.31;69.27;100364.78;5069267;28;20060;-27
2022/11/04 07:51:55;;;;;;;28.08;15.75;;;;;;;12.26;69.59;100340.59;5069607;28;20024;-26
2022/11/04 07:54:20;;;;;;;23.50;14.38;;;;;;;12.48;68.32;100353.47;5069796;28;20094;-28
2022/11/04 07:56:46;;;;;;;26.85;14.43;;;;;;;12.37;69.28;100357.72;5085124;28;20052;-28
2022/11/04 07:59:11;;;;;;;27.38;14.52;;;;;;;12.43;69.03;100324.75;5069549;28;20759;-29
2022/11/04 08:01:37;;;;;;;26.10;14.73;;;;;;;12.68;68.60;100340.66;5069485;28;20510;-27
2022/11/04 08:04:04;;;;;;;27.92;15.23;;;;;;;12.64;68.73;100347.53;5069323;28;20040;-30
2022/11/04 08:06:29;;;;;;;29.10;15.20;;;;;;;12.61;69.11;100326.59;5069106;28;20616;-27
2022/11/04 08:08:57;;;;;;;35.80;17.25;;;;;;;12.62;70.37;100317.50;5069452;28;20029;-29
2022/11/04 08:11:27;;;;;;;32.28;17.42;;;;;;;12.73;68.40;100318.59;5069090;28;20062;-30
2022/11/04 08:13:53;;;;;;;40.05;19.85;;;;;;;12.71;70.39;100336.72;5069224;28;20032;-28
2022/11/04 08:16:21;;;;;;;47.75;21.75;;;;;;;13.02;70.50;100323.13;5068909;28;20642;-28
2022/11/04 08:18:48;;;;;;;53.97;24.63;;;;;;;12.84;71.86;100315.97;5069391;28;20042;-29
2022/11/04 08:21:14;;;;;;;45.00;22.98;;;;;;;12.86;71.55;100329.94;5069373;28;20047;-27
2022/11/04 08:23:40;;;;;;;53.25;23.63;;;;;;;13.10;70.43;100319.31;5069158;28;20035;-26
2022/11/04 08:26:15;;;;;;;53.70;24.35;;;;;;;13.03;71.57;100300.63;5069539;28;20032;-26
2022/11/04 08:28:41;;;;;;;55.30;23.42;;;;;;;13.02;72.49;100300.88;5068794;28;20059;-27
2022/11/04 08:31:18;;;;;;;50.13;21.27;;;;;;;13.00;72.49;100292.28;5069058;28;20210;-26
2022/11/04 08:33:44;;;;;;;49.13;20.77;;;;;;;13.09;72.59;100306.13;5068163;28;20107;-27
2022/11/04 08:36:14;;;;;;;54.28;20.77;;;;;;;12.98;73.15;100287.13;5067559;28;20147;-27
2022/11/04 08:38:39;;;;;;;48.17;21.13;;;;;;;13.25;72.92;100292.88;5068540;28;20666;-27
2022/11/04 08:41:06;;;;;;;48.60;20.02;;;;;;;13.50;72.09;100305.28;5068754;28;20497;-29
2022/11/04 08:43:33;;;;;;;50.50;20.63;;;;;;;13.64;72.18;100304.00;5083889;28;20060;-25
2022/11/04 08:46:00;;;;;;;50.78;23.17;;;;;;;13.64;71.50;100287.13;5066607;28;20025;-27
2022/11/04 08:48:25;;;;;;;49.35;23.17;;;;;;;13.87;71.18;100294.31;5066912;28;20032;-29
2022/11/04 08:50:53;;;;;;;48.47;22.10;;;;;;;13.93;70.82;100289.88;5068665;28;20027;-27
2022/11/04 08:53:19;;;;;;;56.28;25.95;;;;;;;13.80;71.68;100296.31;5068663;28;20044;-27
2022/11/04 08:55:45;;;;;;;53.97;26.15;;;;;;;13.88;71.24;100300.53;5068269;28;20078;-27
2022/11/04 08:58:11;;;;;;;51.20;24.52;;;;;;;14.17;70.03;100296.03;5068234;28;20112;-30
2022/11/04 09:00:36;;;;;;;91.70;36.03;;;;;;;14.55;68.35;100297.34;5066809;28;20115;-29
2022/11/04 09:03:03;;;;;;;47.83;22.65;;;;;;;14.46;68.31;100292.34;5068539;28;20036;-26
2022/11/04 09:05:28;;;;;;;46.47;22.20;;;;;;;14.36;68.73;100286.75;5068138;28;20110;-26
2022/11/04 09:07:54;;;;;;;42.38;18.85;;;;;;;14.35;68.93;100279.78;5068271;28;20032;-28
2022/11/04 09:10:20;;;;;;;39.53;19.55;;;;;;;14.38;69.00;100259.69;5067955;28;20029;-26
2022/11/04 09:12:45;;;;;;;41.50;20.30;;;;;;;14.23;69.63;100271.75;5067992;28;20067;-26
2022/11/04 09:15:11;;;;;;;47.00;19.13;;;;;;;14.41;68.66;100249.31;5068228;28;20032;-29
2022/11/04 09:17:36;;;;;;;38.85;19.90;;;;;;;14.83;66.88;100245.50;5068141;28;20492;-29
2022/11/04 09:20:03;;;;;;;40.22;20.20;;;;;;;15.09;66.65;100260.19;5068109;28;20035;-27
2022/11/04 09:22:30;;;;;;;41.38;19.33;;;;;;;15.22;66.11;100250.97;5067719;28;20042;-26
2022/11/04 09:24:55;;;;;;;42.72;18.80;;;;;;;15.23;66.17;100239.97;5068067;28;20025;-26
2022/11/04 09:27:21;;;;;;;78.50;39.55;;;;;;;15.12;66.29;100218.56;5067351;28;20046;-26
2022/11/04 09:29:46;;;;;;;104.65;48.17;;;;;;;15.33;66.32;100214.34;5067724;28;20028;-33
2022/11/04 09:32:12;;;;;;;55.08;25.35;;;;;;;15.61;65.22;100224.97;5067992;28;20021;-27
2022/11/04 09:34:37;;;;;;;70.00;30.95;;;;;;;15.53;65.85;100217.31;5067581;28;20044;-27
2022/11/04 09:37:02;;;;;;;107.28;46.28;;;;;;;15.57;66.32;100212.25;5066319;28;20169;-31
2022/11/04 09:39:28;;;;;;;304.77;128.32;;;;;;;15.80;65.48;100206.66;5067712;28;20417;-28
2022/11/04 09:42:03;;;;;;;168.40;72.15;;;;;;;16.37;64.44;100221.59;5067554;28;20039;-27
2022/11/04 09:45:09;;;;;;;33.75;17.30;;;;;;;16.50;63.91;100208.78;5067525;28;20036;-27
2022/11/04 09:47:36;;;;;;;29.77;16.08;;;;;;;16.16;64.86;100198.19;5064085;28;20036;-26
2022/11/04 09:50:05;;;;;;;81.45;41.35;;;;;;;16.58;63.68;100197.56;5067397;28;20036;-27
2022/11/04 09:52:36;;;;;;;32.92;17.23;;;;;;;16.45;62.95;100186.13;5066877;28;20035;-25
2022/11/04 09:55:24;;;;;;;29.73;15.60;;;;;;;16.86;62.47;100183.00;5066171;28;20056;-29
2022/11/04 09:57:57;;;;;;;90.68;40.55;;;;;;;17.09;62.00;100181.81;5065535;28;20415;-27
2022/11/04 10:00:24;;;;;;;28.52;16.52;;;;;;;16.20;63.91;100177.78;5065681;28;20385;-29
2022/11/04 10:02:52;;;;;;;33.72;19.33;;;;;;;16.52;63.25;100168.97;5066863;28;20036;-27
2022/11/04 10:05:26;;;;;;;31.67;16.88;;;;;;;16.95;61.57;100172.56;5067314;28;20040;-29
2022/11/04 10:08:20;;;;;;;30.42;17.15;;;;;;;16.96;61.42;100149.94;5067427;28;20025;-32
2022/11/04 10:10:57;;;;;;;35.33;18.40;;;;;;;17.51;60.21;100159.44;5067554;28;20028;-30
2022/11/04 10:13:28;;;;;;;456.17;187.23;;;;;;;18.21;57.47;100156.47;5065756;28;20101;-28
2022/11/04 10:16:03;;;;;;;48.60;23.98;;;;;;;18.38;56.32;100164.31;5065728;28;20358;-26
2022/11/04 10:18:31;;;;;;;30.52;18.63;;;;;;;18.26;56.80;100142.94;5066720;28;20825;-27
2022/11/04 10:21:22;;;;;;;;;;;;;;;18.11;57.71;100142.94;5067615;28;20484;-27
2022/11/04 10:23:57;;;;;;;26.80;16.90;;;;;;;18.75;54.83;100139.72;5065925;28;19916;-30
2022/11/04 10:26:32;;;;;;;31.02;17.20;;;;;;;18.87;54.17;100115.97;5066736;28;20032;-29
2022/11/04 10:29:04;;;;;;;65.53;37.50;;;;;;;19.32;54.84;100120.75;5066979;28;20040;-27
2022/11/04 10:31:30;;;;;;;39.42;20.65;;;;;;;19.31;55.16;100114.53;5066932;28;20037;-28
2022/11/04 10:34:07;;;;;;;60.97;36.97;;;;;;;18.90;56.04;100119.22;5066611;28;20503;-32
2022/11/04 10:36:34;;;;;;;143.43;70.55;;;;;;;18.37;56.92;100100.56;5066604;28;20488;-27
2022/11/04 10:39:07;;;;;;;30.63;17.70;;;;;;;18.87;56.29;100104.34;5066761;28;20037;-28
2022/11/04 10:41:34;;;;;;;80.95;46.35;;;;;;;19.16;55.27;100090.22;5066707;28;20021;-28
2022/11/04 10:44:07;;;;;;;24.58;15.43;;;;;;;19.20;54.71;100102.13;5068890;28;20519;-27
2022/11/04 10:46:58;;;;;;;78.85;43.33;;;;;;;19.37;54.04;100093.66;5065619;28;20127;-28
2022/11/04 10:49:42;;;;;;;29.17;18.52;;;;;;;19.71;52.96;100095.72;5066556;28;20063;-28
2022/11/04 10:52:09;;;;;;;39.53;22.30;;;;;;;19.89;51.93;100065.28;5049972;28;20029;-28
2022/11/04 10:54:45;;;;;;;48.67;24.88;;;;;;;20.05;52.00;100064.09;5075584;28;20111;-32
2022/11/04 10:57:12;;;;;;;38.53;17.73;;;;;;;19.89;52.32;100054.47;5068295;28;20028;-27
2022/11/04 10:59:57;;;;;;;28.35;16.63;;;;;;;20.06;52.46;100071.16;5086702;28;20024;-29
2022/11/04 11:02:43;;;;;;;37.03;16.60;;;;;;;19.93;53.25;100066.34;5086208;28;20519;-30
2022/11/04 11:05:17;;;;;;;39.53;20.33;;;;;;;20.41;51.63;100065.72;5086180;28;20032;-29
2022/11/04 11:07:48;;;;;;;68.97;37.88;;;;;;;20.65;51.34;100044.91;5086749;28;20016;-27
2022/11/04 11:10:20;;;;;;;65.88;35.75;;;;;;;20.98;50.72;100049.72;5090884;28;20028;-27
2022/11/04 11:12:55;;;;;;;48.95;25.95;;;;;;;20.43;51.45;100048.09;5090666;28;20741;-26
2022/11/04 11:15:21;;;;;;;247.05;118.05;;;;;;;20.69;50.62;100047.88;5090475;28;20031;-27
2022/11/04 11:17:46;;;;;;;1480.47;727.60;;;;;;;20.09;51.65;100022.94;5090347;28;20032;-25
2022/11/04 11:20:19;;;;;;;756.03;392.35;;;;;;;20.39;51.60;100035.38;5090593;28;20725;-30
2022/11/04 11:22:47;;;;;;;695.05;342.45;;;;;;;20.69;51.51;100026.19;5090672;28;20040;-27
2022/11/04 11:25:30;;;;;;;74.47;36.85;;;;;;;20.71;50.33;100026.72;5090427;28;20028;-26
2022/11/04 11:28:05;;;;;;;37.83;21.95;;;;;;;21.09;49.86;100015.19;5090387;28;20458;-27
2022/11/04 11:30:35;;;;;;;524.88;242.88;;;;;;;20.96;49.88;100005.84;5090113;28;20043;-28
2022/11/04 11:33:07;;;;;;;536.75;241.10;;;;;;;21.22;49.21;100009.03;5072054;28;20036;-27
2022/11/04 11:35:41;;;;;;;45.75;24.10;;;;;;;21.61;47.77;99997.94;5090363;28;20028;-27
2022/11/04 11:38:27;;;;;;;29.38;16.98;;;;;;;21.18;48.17;100008.81;5090205;28;20117;-27
2022/11/04 11:41:04;;;;;;;30.67;18.50;;;;;;;20.98;48.44;99993.59;5090299;28;20036;-29
2022/11/04 11:43:33;;;;;;;361.75;144.15;;;;;;;21.38;48.33;100002.31;5090154;28;20028;-27
2022/11/04 11:45:59;;;;;;;51.80;26.13;;;;;;;21.90;47.31;99996.97;5089863;28;20044;-29
2022/11/04 11:48:37;;;;;;;171.80;67.90;;;;;;;22.05;46.81;100004.06;5089869;28;20028;-26
2022/11/04 11:51:03;;;;;;;311.80;106.43;;;;;;;22.35;46.11;99978.31;5089903;28;20036;-33
2022/11/04 11:53:29;;;;;;;61.78;32.42;;;;;;;22.84;43.47;99993.16;5090332;28;20093;-26
2022/11/04 11:56:05;;;;;;;43.28;24.48;;;;;;;22.16;45.19;100004.69;5071569;28;20055;-26
2022/11/04 11:58:41;;;;;;;324.60;134.73;;;;;;;22.40;44.92;99999.16;5089601;28;20035;-25